Time;durP1;ratioP1;P1;durP2;ratioP2;P2;SDS_P1;SDS_P2;PMS_P1;PMS_P2;Temp;Humidity;BMP_temperature;BMP_pressure;BME280_temperature;BME280_humidity;BME280_pressure;Samples;Min_cycle;Max_cycle;Signal;HPM_P1;HPM_P2
2023/12/22 00:00:32;;;;;;;1.20;0.80;;;;;;;4.69;86.91;97936.63;4967616;28;20199;-70
2023/12/22 00:03:03;;;;;;;1.60;1.10;;;;;;;4.64;86.45;97954.47;4970960;28;20698;-69
2023/12/22 00:05:32;;;;;;;4.38;1.00;;;;;;;4.59;86.54;97949.81;4960694;28;20712;-70
2023/12/22 00:08:01;;;;;;;0.80;0.60;;;;;;;4.50;86.79;97943.19;4965821;28;20195;-70
2023/12/22 00:10:30;;;;;;;2.97;1.13;;;;;;;4.45;86.53;97952.97;4961288;28;20200;-71
2023/12/22 00:12:59;;;;;;;4.82;1.70;;;;;;;4.44;87.12;97954.00;4962833;28;20204;-71
2023/12/22 00:15:30;;;;;;;3.17;1.50;;;;;;;4.38;86.40;97961.91;4966308;28;20219;-70
2023/12/22 00:17:59;;;;;;;5.75;2.30;;;;;;;4.36;85.78;97966.69;4961009;28;20192;-70
2023/12/22 00:20:30;;;;;;;5.80;1.42;;;;;;;4.37;84.99;97983.56;4973349;28;20202;-71
2023/12/22 00:22:59;;;;;;;4.72;1.38;;;;;;;4.35;85.29;97977.66;4966829;28;20198;-70
2023/12/22 00:25:28;;;;;;;1.55;1.00;;;;;;;4.32;84.78;97972.75;4971573;28;20224;-70
2023/12/22 00:27:57;;;;;;;1.23;0.80;;;;;;;4.38;82.84;97977.97;4965377;28;20287;-69
2023/12/22 00:30:26;;;;;;;6.43;1.83;;;;;;;4.44;82.10;97992.31;4960791;28;20664;-70
2023/12/22 00:32:55;;;;;;;1.92;1.30;;;;;;;4.48;80.91;97993.47;4965043;28;20207;-70
2023/12/22 00:35:24;;;;;;;2.45;1.77;;;;;;;4.59;80.60;97995.34;4972042;28;20211;-70
2023/12/22 00:37:54;;;;;;;3.45;1.88;;;;;;;4.60;80.37;98017.56;4967634;28;20204;-70
2023/12/22 00:40:23;;;;;;;2.95;2.22;;;;;;;4.70;80.05;97994.47;4969160;28;20240;-69
2023/12/22 00:42:52;;;;;;;1.73;1.33;;;;;;;4.79;78.54;98011.81;4969604;28;20540;-70
2023/12/22 00:45:21;;;;;;;2.90;1.83;;;;;;;4.88;78.25;98024.88;4966714;28;20269;-70
2023/12/22 00:47:50;;;;;;;4.47;1.30;;;;;;;4.92;78.24;98020.66;4972520;28;20187;-70
2023/12/22 00:50:19;;;;;;;1.35;1.23;;;;;;;4.94;78.87;98035.44;4964164;28;20254;-70
2023/12/22 00:52:48;;;;;;;2.88;1.45;;;;;;;4.98;78.43;98041.19;4963447;28;20216;-69
2023/12/22 00:55:18;;;;;;;7.38;2.00;;;;;;;4.93;80.08;98049.09;4968109;28;20281;-70
2023/12/22 00:57:47;;;;;;;9.23;1.23;;;;;;;4.91;79.50;98041.28;4973845;28;20270;-69
2023/12/22 01:00:18;;;;;;;9.20;1.40;;;;;;;4.88;80.35;98043.63;4969329;28;20192;-70
2023/12/22 01:02:46;;;;;;;16.90;2.25;;;;;;;4.84;81.15;98037.94;4965843;28;20185;-70
2023/12/22 01:05:16;;;;;;;7.07;2.75;;;;;;;4.70;82.55;98050.72;4964499;28;20238;-70
2023/12/22 01:07:45;;;;;;;0.98;0.70;;;;;;;4.64;83.17;98046.34;4971785;28;20222;-72
2023/12/22 01:10:14;;;;;;;6.18;1.42;;;;;;;4.59;83.64;98064.97;4971247;28;20201;-68
2023/12/22 01:12:44;;;;;;;2.53;1.85;;;;;;;4.58;84.90;98073.22;4965640;28;20218;-68
2023/12/22 01:15:14;;;;;;;1.52;1.00;;;;;;;4.58;84.53;98078.56;4964147;28;20274;-69
2023/12/22 01:17:46;;;;;;;3.10;1.38;;;;;;;4.59;85.44;98074.84;4964793;28;20206;-68
2023/12/22 01:20:16;;;;;;;4.22;2.05;;;;;;;4.63;86.44;98102.78;4972132;28;20195;-70
2023/12/22 01:22:44;;;;;;;8.45;1.85;;;;;;;4.62;86.87;98101.97;4969137;28;20231;-71
2023/12/22 01:25:13;;;;;;;3.15;1.25;;;;;;;4.59;87.81;98102.44;4964566;28;20282;-70
2023/12/22 01:27:44;;;;;;;2.00;0.70;;;;;;;4.56;88.73;98080.66;4968326;28;20191;-68
2023/12/22 01:30:13;;;;;;;1.40;0.68;;;;;;;4.48;89.27;98097.88;4972146;28;20203;-69
2023/12/22 01:32:42;;;;;;;1.45;0.98;;;;;;;4.47;90.17;98106.97;4968709;28;20567;-69
2023/12/22 01:35:11;;;;;;;3.40;1.55;;;;;;;4.48;90.52;98105.91;4967078;28;20216;-68
2023/12/22 01:37:40;;;;;;;2.67;1.02;;;;;;;4.48;90.82;98103.25;4965287;28;20556;-69
2023/12/22 01:40:10;;;;;;;1.20;0.98;;;;;;;4.46;91.52;98112.53;4958092;28;20212;-70
2023/12/22 01:42:39;;;;;;;1.65;1.02;;;;;;;4.46;91.40;98104.50;4963676;28;20192;-70
2023/12/22 01:45:10;;;;;;;3.63;2.03;;;;;;;4.48;91.51;98127.34;4968690;28;20576;-69
2023/12/22 01:47:40;;;;;;;0.90;0.80;;;;;;;4.49;91.59;98112.91;4962633;28;20196;-69
2023/12/22 01:50:11;;;;;;;1.75;0.90;;;;;;;4.47;91.76;98115.00;4965918;28;20207;-69
2023/12/22 01:52:42;;;;;;;2.75;1.60;;;;;;;4.44;91.99;98126.19;4963708;28;20235;-69
2023/12/22 01:55:14;;;;;;;1.55;1.30;;;;;;;4.38;91.44;98127.09;4966284;28;20781;-69
2023/12/22 01:57:44;;;;;;;4.05;2.25;;;;;;;4.40;92.12;98127.69;4970372;28;20286;-69
2023/12/22 02:00:16;;;;;;;8.40;1.55;;;;;;;4.37;91.90;98120.91;4964275;28;20609;-68
2023/12/22 02:02:45;;;;;;;4.85;1.85;;;;;;;4.34;91.55;98123.25;4972103;28;20192;-70
2023/12/22 02:05:16;;;;;;;1.58;0.88;;;;;;;4.30;91.30;98114.03;4964237;28;20304;-69
2023/12/22 02:07:46;;;;;;;3.83;0.90;;;;;;;4.36;92.10;98121.13;4972301;28;20195;-68
2023/12/22 02:10:16;;;;;;;4.35;2.05;;;;;;;4.38;91.14;98127.09;4973864;28;20565;-68
2023/12/22 02:12:45;;;;;;;2.25;0.80;;;;;;;4.39;91.46;98139.44;4971297;28;20227;-70
2023/12/22 02:15:15;;;;;;;3.85;1.50;;;;;;;4.38;91.64;98143.97;4973040;28;20765;-70
2023/12/22 02:17:49;;;;;;;5.32;1.67;;;;;;;4.25;92.15;98144.16;4968717;28;20231;-70
2023/12/22 02:20:20;;;;;;;1.33;1.17;;;;;;;4.19;93.14;98138.91;4964806;28;20246;-70
2023/12/22 02:22:54;;;;;;;4.22;1.80;;;;;;;4.11;93.45;98125.84;4971672;28;20219;-70
2023/12/22 02:25:23;;;;;;;3.33;1.05;;;;;;;4.07;93.63;98130.00;4970686;28;20223;-70
2023/12/22 02:27:58;;;;;;;1.88;1.00;;;;;;;4.11;92.88;98120.50;4971493;28;20267;-71
2023/12/22 02:30:33;;;;;;;1.95;1.10;;;;;;;4.12;92.82;98127.47;4972847;28;20254;-69
2023/12/22 02:33:05;;;;;;;6.43;1.45;;;;;;;4.06;94.03;98128.41;4972769;28;20278;-70
2023/12/22 02:35:37;;;;;;;16.70;3.85;;;;;;;4.02;94.16;98122.66;4963552;28;20618;-70
2023/12/22 02:38:09;;;;;;;6.20;1.58;;;;;;;4.07;93.50;98135.34;4964840;28;20200;-69
2023/12/22 02:40:38;;;;;;;2.88;2.08;;;;;;;4.13;93.07;98134.44;4965523;28;20198;-70
2023/12/22 02:43:09;;;;;;;1.35;0.85;;;;;;;4.19;93.16;98139.72;4976024;28;20262;-71
2023/12/22 02:45:38;;;;;;;9.82;1.80;;;;;;;4.19;92.86;98149.59;4969669;28;20231;-70
2023/12/22 02:48:07;;;;;;;2.38;1.67;;;;;;;4.12;93.47;98144.34;4972785;28;20191;-70
2023/12/22 02:50:36;;;;;;;1.65;1.40;;;;;;;4.01;94.24;98130.94;4967241;28;20187;-70
2023/12/22 02:53:07;;;;;;;8.07;1.90;;;;;;;4.10;94.13;98134.91;4967413;28;20298;-70
2023/12/22 02:55:37;;;;;;;1.00;0.77;;;;;;;4.10;93.85;98137.59;4969018;28;20270;-69
2023/12/22 02:58:06;;;;;;;1.00;0.73;;;;;;;4.11;93.35;98139.25;4962193;28;20197;-68
2023/12/22 03:00:35;;;;;;;2.22;1.25;;;;;;;4.09;92.81;98138.63;4972263;28;20246;-70
2023/12/22 03:03:06;;;;;;;1.85;1.23;;;;;;;4.08;91.82;98129.78;4972117;28;20195;-70
2023/12/22 03:05:35;;;;;;;1.75;0.90;;;;;;;4.05;92.34;98116.06;4959178;28;20216;-70
2023/12/22 03:08:05;;;;;;;5.78;1.80;;;;;;;3.98;93.42;98123.34;4971879;28;20195;-69
2023/12/22 03:10:35;;;;;;;4.78;1.85;;;;;;;3.95;93.98;98132.66;4967997;28;20664;-69
2023/12/22 03:13:04;;;;;;;3.35;1.10;;;;;;;3.85;95.28;98135.88;4973764;28;20192;-70
2023/12/22 03:15:33;;;;;;;1.60;0.85;;;;;;;3.87;95.23;98117.72;4970078;28;20215;-69
2023/12/22 03:18:02;;;;;;;3.75;1.25;;;;;;;3.84;95.08;98114.69;4968129;28;20754;-71
2023/12/22 03:20:31;;;;;;;4.85;0.90;;;;;;;3.88;95.14;98114.00;4962126;28;20216;-69
2023/12/22 03:23:00;;;;;;;0.80;0.52;;;;;;;3.86;95.18;98117.97;4966217;28;20288;-69
2023/12/22 03:25:29;;;;;;;5.07;1.42;;;;;;;3.81;95.65;98126.66;4970087;28;20789;-70
2023/12/22 03:27:59;;;;;;;1.55;0.70;;;;;;;3.85;95.62;98122.50;4969500;28;20191;-69
2023/12/22 03:30:27;;;;;;;3.60;1.35;;;;;;;3.82;96.01;98127.50;4971933;28;20672;-70
2023/12/22 03:32:56;;;;;;;0.95;0.60;;;;;;;3.79;95.95;98115.38;4967077;28;20206;-70
2023/12/22 03:35:25;;;;;;;1.20;0.93;;;;;;;3.75;96.80;98126.75;4970224;28;20215;-70
2023/12/22 03:37:54;;;;;;;1.45;0.60;;;;;;;3.72;97.76;98121.84;4964294;28;20192;-70
2023/12/22 03:40:23;;;;;;;1.23;0.75;;;;;;;3.69;97.46;98120.44;4974637;28;20199;-68
2023/12/22 03:42:52;;;;;;;6.28;1.60;;;;;;;3.69;97.37;98111.59;4960905;28;20191;-69
2023/12/22 03:45:23;;;;;;;1.35;0.70;;;;;;;3.69;97.48;98128.47;4966897;28;20219;-69
2023/12/22 03:47:52;;;;;;;5.03;1.50;;;;;;;3.72;97.14;98138.72;4967069;28;20191;-69
2023/12/22 03:50:21;;;;;;;2.33;1.70;;;;;;;3.80;97.16;98134.91;4973113;28;20191;-69
2023/12/22 03:52:49;;;;;;;1.80;1.05;;;;;;;3.76;97.06;98125.72;4964072;28;20290;-70
2023/12/22 03:55:18;;;;;;;1.80;1.40;;;;;;;3.82;96.21;98122.97;4972572;28;20211;-69
2023/12/22 03:57:47;;;;;;;1.70;0.85;;;;;;;3.88;96.00;98119.34;4967086;28;20219;-70
2023/12/22 04:00:17;;;;;;;2.25;1.52;;;;;;;3.96;96.07;98130.78;4968383;28;20286;-69
2023/12/22 04:02:47;;;;;;;0.80;0.50;;;;;;;3.98;95.64;98136.72;4972439;28;20191;-69
2023/12/22 04:05:16;;;;;;;2.67;1.40;;;;;;;3.99;95.90;98133.81;4965805;28;20211;-70
2023/12/22 04:07:45;;;;;;;2.85;1.20;;;;;;;4.09;96.40;98143.97;4965492;28;20192;-70
2023/12/22 04:10:17;;;;;;;11.43;2.05;;;;;;;4.08;95.73;98158.41;4966489;28;20195;-69
2023/12/22 04:12:46;;;;;;;1.00;0.50;;;;;;;4.06;95.67;98144.44;4969765;28;20203;-70
2023/12/22 04:15:15;;;;;;;1.90;0.50;;;;;;;4.07;96.56;98146.06;4971502;28;20211;-71
2023/12/22 04:17:44;;;;;;;0.80;0.60;;;;;;;3.99;97.29;98149.06;4965278;28;20205;-69
2023/12/22 04:20:14;;;;;;;1.95;0.93;;;;;;;3.95;97.88;98138.00;4969386;28;20259;-70
2023/12/22 04:22:43;;;;;;;0.80;0.60;;;;;;;3.86;99.36;98140.19;4960403;28;20199;-68
2023/12/22 04:25:12;;;;;;;4.10;0.75;;;;;;;3.81;100.00;98150.75;4970375;28;20586;-71
2023/12/22 04:27:42;;;;;;;1.70;0.95;;;;;;;3.73;100.00;98139.50;4966740;28;20204;-70
2023/12/22 04:30:11;;;;;;;1.00;0.60;;;;;;;3.70;100.00;98145.31;4969374;28;20219;-69
2023/12/22 04:32:41;;;;;;;3.50;1.42;;;;;;;3.61;100.00;98146.66;4965145;28;20207;-69
2023/12/22 04:35:10;;;;;;;1.33;0.93;;;;;;;3.58;100.00;98142.59;4962981;28;20270;-69
2023/12/22 04:37:40;;;;;;;3.10;1.20;;;;;;;3.55;100.00;98135.00;4967988;28;20238;-70
2023/12/22 04:40:10;;;;;;;1.38;0.60;;;;;;;3.65;100.00;98134.47;4972560;28;20195;-71
2023/12/22 04:42:39;;;;;;;0.80;0.50;;;;;;;3.57;100.00;98132.13;4965159;28;20195;-69
2023/12/22 04:45:08;;;;;;;2.08;1.20;;;;;;;3.51;100.00;98136.50;4966307;28;20215;-69
2023/12/22 04:47:37;;;;;;;1.67;1.58;;;;;;;3.54;100.00;98132.56;4969969;28;20188;-70
2023/12/22 04:50:06;;;;;;;0.90;0.68;;;;;;;3.60;100.00;98137.81;4972367;28;20194;-68
2023/12/22 04:52:35;;;;;;;1.70;1.45;;;;;;;3.64;100.00;98138.19;4967558;28;20203;-71
2023/12/22 04:55:06;;;;;;;2.15;1.35;;;;;;;3.69;100.00;98141.81;4958484;28;20279;-69
2023/12/22 04:57:35;;;;;;;2.75;0.60;;;;;;;3.72;100.00;98152.09;4960597;28;20215;-70
2023/12/22 05:00:05;;;;;;;2.55;0.57;;;;;;;3.66;100.00;98133.44;4962363;28;20192;-71
2023/12/22 05:02:34;;;;;;;1.00;0.80;;;;;;;3.58;100.00;98147.94;4965922;28;20606;-70
2023/12/22 05:05:03;;;;;;;2.92;0.80;;;;;;;3.48;100.00;98142.31;4967431;28;20212;-70
2023/12/22 05:07:32;;;;;;;1.60;1.50;;;;;;;3.43;100.00;98134.97;4972449;28;20187;-69
2023/12/22 05:10:54;;;;;;;0.80;0.50;;;;;;;3.34;100.00;98146.16;4971904;28;20699;-70
2023/12/22 05:13:25;;;;;;;2.25;0.90;;;;;;;3.28;100.00;98142.53;4964747;28;20673;-72
2023/12/22 05:15:54;;;;;;;0.80;0.50;;;;;;;3.25;100.00;98145.63;4969819;28;20216;-70
2023/12/22 05:18:24;;;;;;;2.47;0.68;;;;;;;3.12;100.00;98131.59;4958237;28;20188;-70
2023/12/22 05:20:54;;;;;;;0.90;0.50;;;;;;;2.97;100.00;98130.09;4973040;28;20273;-71
2023/12/22 05:23:22;;;;;;;1.27;0.70;;;;;;;2.93;100.00;98128.09;4970063;28;20723;-71
2023/12/22 05:25:52;;;;;;;0.80;0.63;;;;;;;2.92;100.00;98124.59;4966491;28;20238;-70
2023/12/22 05:28:21;;;;;;;4.30;2.25;;;;;;;2.95;100.00;98105.44;4965314;28;20200;-71
2023/12/22 05:30:52;;;;;;;1.45;0.90;;;;;;;2.98;100.00;98106.88;4975625;28;20246;-71
2023/12/22 05:33:21;;;;;;;0.80;0.50;;;;;;;2.90;100.00;98124.00;4971662;28;20203;-70
2023/12/22 05:35:50;;;;;;;0.80;0.50;;;;;;;2.94;100.00;98138.56;4968979;28;20207;-71
2023/12/22 05:38:18;;;;;;;7.72;0.90;;;;;;;2.90;100.00;98145.38;4970973;28;20600;-71
2023/12/22 05:40:48;;;;;;;0.80;0.50;;;;;;;2.94;100.00;98146.56;4969418;28;20210;-73
2023/12/22 05:43:17;;;;;;;2.95;0.70;;;;;;;2.95;100.00;98116.13;4976177;28;20199;-70
2023/12/22 05:45:46;;;;;;;6.35;0.80;;;;;;;2.95;100.00;98137.50;4974243;28;20254;-70
2023/12/22 05:48:16;;;;;;;0.80;0.40;;;;;;;2.99;100.00;98133.38;4964381;28;20191;-71
2023/12/22 05:50:45;;;;;;;0.80;0.50;;;;;;;2.92;100.00;98145.97;4969388;28;20196;-70
2023/12/22 05:53:15;;;;;;;1.40;1.13;;;;;;;2.90;100.00;98148.06;4976529;28;20211;-71
2023/12/22 05:55:46;;;;;;;1.00;0.80;;;;;;;2.91;100.00;98140.81;4968621;28;20211;-70
2023/12/22 05:58:15;;;;;;;0.90;0.50;;;;;;;2.95;100.00;98132.16;4976265;28;20533;-71
2023/12/22 06:00:44;;;;;;;1.33;1.13;;;;;;;3.01;100.00;98141.97;4970603;28;20243;-69
2023/12/22 06:03:14;;;;;;;1.20;0.63;;;;;;;3.01;100.00;98133.94;4959352;28;20718;-70
2023/12/22 06:05:45;;;;;;;0.95;0.60;;;;;;;3.00;100.00;98134.19;4963532;28;20240;-71
2023/12/22 06:08:14;;;;;;;4.10;0.80;;;;;;;2.99;100.00;98138.72;4970972;28;20192;-71
2023/12/22 06:10:42;;;;;;;0.80;0.50;;;;;;;3.02;100.00;98137.44;4968350;28;20187;-70
2023/12/22 06:13:12;;;;;;;1.20;0.70;;;;;;;3.08;100.00;98146.44;4970556;28;20200;-71
2023/12/22 06:15:43;;;;;;;0.80;0.50;;;;;;;3.06;100.00;98149.31;4973111;28;20302;-72
2023/12/22 06:18:12;;;;;;;0.80;0.50;;;;;;;3.04;100.00;98146.88;4964593;28;20210;-68
2023/12/22 06:20:41;;;;;;;0.80;0.50;;;;;;;2.94;100.00;98151.91;4972730;28;20195;-68
2023/12/22 06:23:12;;;;;;;3.50;0.98;;;;;;;2.92;100.00;98145.13;4971307;28;20192;-70
2023/12/22 06:25:43;;;;;;;9.18;0.90;;;;;;;2.93;100.00;98131.56;4973689;28;20208;-71
2023/12/22 06:28:12;;;;;;;0.90;0.50;;;;;;;3.00;100.00;98140.31;4960241;28;20196;-69
2023/12/22 06:30:42;;;;;;;1.42;0.68;;;;;;;3.08;100.00;98147.25;4972607;28;20192;-69
2023/12/22 06:33:12;;;;;;;1.08;0.82;;;;;;;3.04;99.93;98146.88;4963339;28;20208;-69
2023/12/22 06:35:41;;;;;;;0.80;0.60;;;;;;;3.15;99.88;98141.84;4971225;28;20586;-71
2023/12/22 06:38:12;;;;;;;0.80;0.50;;;;;;;3.12;99.96;98148.44;4964323;28;20663;-71
2023/12/22 06:40:41;;;;;;;3.13;0.95;;;;;;;3.23;99.08;98146.91;4972050;28;20188;-70
2023/12/22 06:43:10;;;;;;;3.13;0.85;;;;;;;3.25;99.51;98164.31;4971139;28;20670;-70
2023/12/22 06:45:40;;;;;;;0.80;0.50;;;;;;;3.16;100.00;98156.81;4972808;28;20302;-69
2023/12/22 06:48:10;;;;;;;1.52;0.95;;;;;;;3.02;100.00;98151.63;4958898;28;20298;-70
2023/12/22 06:50:39;;;;;;;0.90;0.50;;;;;;;2.88;100.00;98147.44;4973872;28;20274;-71
2023/12/22 06:53:08;;;;;;;0.90;0.50;;;;;;;2.71;100.00;98157.03;4975459;28;20291;-71
2023/12/22 06:55:51;;;;;;;1.98;0.50;;;;;;;2.72;100.00;98177.34;4970481;28;20342;-71
2023/12/22 06:58:21;;;;;;;1.92;1.05;;;;;;;2.58;100.00;98167.81;4979120;28;20199;-71
2023/12/22 07:00:50;;;;;;;0.80;0.50;;;;;;;2.49;100.00;98177.13;4970393;28;20632;-71
2023/12/22 07:03:19;;;;;;;1.98;0.90;;;;;;;2.43;100.00;98196.66;4966889;28;20191;-70
2023/12/22 07:05:49;;;;;;;0.90;0.70;;;;;;;2.33;100.00;98196.31;4962615;28;20730;-71
2023/12/22 07:08:18;;;;;;;0.80;0.50;;;;;;;2.32;100.00;98200.88;4970343;28;20203;-71
2023/12/22 07:10:47;;;;;;;0.88;0.70;;;;;;;2.37;100.00;98194.88;4960248;28;20202;-70
2023/12/22 07:13:17;;;;;;;3.95;0.70;;;;;;;2.40;100.00;98213.13;4974900;28;20195;-71
2023/12/22 07:15:46;;;;;;;0.80;0.50;;;;;;;2.50;100.00;98208.13;4966611;28;20692;-71
2023/12/22 07:18:15;;;;;;;2.08;1.50;;;;;;;2.59;100.00;98217.50;4975526;28;20671;-71
2023/12/22 07:20:44;;;;;;;2.10;0.68;;;;;;;2.67;100.00;98225.25;4970615;28;20675;-70
2023/12/22 07:23:13;;;;;;;1.75;1.65;;;;;;;2.62;100.00;98222.41;4962220;28;20225;-71
2023/12/22 07:25:42;;;;;;;0.80;0.50;;;;;;;2.59;100.00;98210.31;4966742;28;20490;-68
2023/12/22 07:28:12;;;;;;;1.55;0.60;;;;;;;2.61;100.00;98210.13;4968019;28;20400;-71
2023/12/22 07:30:42;;;;;;;1.77;1.67;;;;;;;2.68;100.00;98205.53;4964230;28;20207;-71
2023/12/22 07:33:11;;;;;;;1.65;0.80;;;;;;;2.74;100.00;98210.00;4970149;28;20188;-72
2023/12/22 07:35:40;;;;;;;0.90;0.50;;;;;;;2.80;100.00;98203.81;4971462;28;20282;-70
2023/12/22 07:38:13;;;;;;;0.85;0.55;;;;;;;2.84;100.00;98205.00;4963785;28;20704;-70
2023/12/22 07:40:43;;;;;;;0.80;0.50;;;;;;;2.92;100.00;98212.72;4962380;28;20213;-71
2023/12/22 07:43:13;;;;;;;0.98;0.68;;;;;;;2.97;100.00;98207.56;4964897;28;20581;-70
2023/12/22 07:45:43;;;;;;;0.90;0.60;;;;;;;3.02;100.00;98212.25;4963356;28;20256;-70
2023/12/22 07:48:13;;;;;;;0.90;0.63;;;;;;;3.08;100.00;98205.22;4974392;28;20679;-71
2023/12/22 07:50:42;;;;;;;6.93;2.55;;;;;;;3.13;100.00;98205.38;4963802;28;20214;-69
2023/12/22 07:53:11;;;;;;;3.25;1.50;;;;;;;3.22;100.00;98214.72;4974182;28;20206;-70
2023/12/22 07:55:40;;;;;;;6.82;1.27;;;;;;;3.30;100.00;98217.13;4969652;28;20219;-68
2023/12/22 07:58:10;;;;;;;2.58;1.33;;;;;;;3.30;100.00;98220.59;4974384;28;20195;-70
2023/12/22 08:00:39;;;;;;;3.40;0.95;;;;;;;3.31;100.00;98224.09;4963694;28;20202;-70
2023/12/22 08:03:09;;;;;;;2.22;0.75;;;;;;;3.29;100.00;98235.00;4971188;28;20211;-70
2023/12/22 08:05:38;;;;;;;1.33;0.60;;;;;;;3.31;100.00;98216.09;4956882;28;20778;-71
2023/12/22 08:08:07;;;;;;;2.25;0.80;;;;;;;3.27;100.00;98226.41;4969559;28;20199;-69
2023/12/22 08:10:37;;;;;;;2.15;1.02;;;;;;;3.21;100.00;98234.47;4973251;28;20660;-70
2023/12/22 08:13:06;;;;;;;2.10;0.98;;;;;;;3.15;100.00;98222.00;4963062;28;20281;-69
2023/12/22 08:15:35;;;;;;;0.90;0.60;;;;;;;3.06;100.00;98246.31;4968443;28;20250;-70
2023/12/22 08:18:06;;;;;;;1.98;0.80;;;;;;;3.07;100.00;98236.44;4963253;28;20763;-71
2023/12/22 08:20:36;;;;;;;1.10;0.80;;;;;;;3.03;100.00;98238.75;4968069;28;20196;-69
2023/12/22 08:23:12;;;;;;;1.45;0.70;;;;;;;3.09;100.00;98257.59;4962702;28;20226;-69
2023/12/22 08:25:42;;;;;;;5.05;0.98;;;;;;;3.12;100.00;98270.53;4968311;28;20251;-71
2023/12/22 08:28:13;;;;;;;2.13;1.20;;;;;;;3.15;100.00;98273.56;4963813;28;20243;-70
2023/12/22 08:30:42;;;;;;;0.80;0.50;;;;;;;3.04;100.00;98263.59;4972712;28;20210;-70
2023/12/22 08:33:12;;;;;;;2.13;0.85;;;;;;;3.11;100.00;98277.72;4968280;28;20188;-70
2023/12/22 08:35:43;;;;;;;0.80;0.50;;;;;;;3.10;98.21;98278.75;4969517;28;20215;-70
2023/12/22 08:38:13;;;;;;;0.80;0.60;;;;;;;3.08;97.99;98285.34;4971641;28;20302;-69
2023/12/22 08:40:42;;;;;;;0.80;0.50;;;;;;;3.08;97.95;98294.19;4970634;28;20195;-69
2023/12/22 08:43:11;;;;;;;2.88;0.80;;;;;;;3.09;97.35;98292.34;4962907;28;20533;-70
2023/12/22 08:45:40;;;;;;;2.85;1.80;;;;;;;3.14;98.09;98297.84;4973534;28;20211;-72
2023/12/22 08:48:10;;;;;;;0.90;0.70;;;;;;;3.12;98.13;98298.06;4964475;28;20199;-70
2023/12/22 08:50:39;;;;;;;1.58;0.70;;;;;;;2.98;99.04;98297.34;4959195;28;20184;-69
2023/12/22 08:53:10;;;;;;;2.03;1.15;;;;;;;3.05;99.21;98313.31;4968589;28;20951;-70
2023/12/22 08:55:39;;;;;;;0.80;0.50;;;;;;;3.04;97.54;98296.50;4961639;28;20232;-71
2023/12/22 08:58:07;;;;;;;2.45;1.15;;;;;;;3.06;96.82;98302.41;4964442;28;20204;-71
2023/12/22 09:00:37;;;;;;;1.40;0.70;;;;;;;3.09;96.72;98308.38;4960585;28;20199;-70
2023/12/22 09:03:06;;;;;;;1.20;0.80;;;;;;;3.13;96.14;98299.72;4965599;28;20652;-70
2023/12/22 09:05:35;;;;;;;6.82;1.08;;;;;;;3.21;96.45;98310.13;4969073;28;20218;-71
2023/12/22 09:08:05;;;;;;;1.55;1.25;;;;;;;3.29;95.99;98301.81;4975150;28;20223;-70
2023/12/22 09:10:36;;;;;;;4.22;1.98;;;;;;;3.36;95.88;98321.31;4982830;28;20222;-70
2023/12/22 09:13:05;;;;;;;1.58;1.45;;;;;;;3.56;94.53;98320.31;4969257;28;20203;-70
2023/12/22 09:15:34;;;;;;;3.78;1.25;;;;;;;3.70;94.59;98321.81;4973002;28;20703;-69
2023/12/22 09:18:03;;;;;;;1.20;0.70;;;;;;;3.58;92.95;98313.72;4964326;28;20222;-70
2023/12/22 09:20:32;;;;;;;7.50;1.02;;;;;;;3.60;92.50;98334.88;4970043;28;20227;-69
2023/12/22 09:23:05;;;;;;;1.60;1.50;;;;;;;3.74;92.15;98342.56;4966426;28;20578;-71
2023/12/22 09:25:35;;;;;;;1.00;0.68;;;;;;;3.74;91.13;98334.53;4971258;28;20230;-69
2023/12/22 09:28:05;;;;;;;1.17;0.77;;;;;;;3.70;90.47;98338.69;4974814;28;20195;-69
2023/12/22 09:30:34;;;;;;;3.30;2.10;;;;;;;3.78;90.75;98351.78;4967856;28;20195;-69
2023/12/22 09:33:04;;;;;;;0.93;0.70;;;;;;;3.79;89.43;98342.72;4962917;28;20626;-69
2023/12/22 09:35:33;;;;;;;0.80;0.52;;;;;;;3.91;88.29;98345.50;4967571;28;20262;-69
2023/12/22 09:38:01;;;;;;;2.58;2.00;;;;;;;4.03;88.07;98369.63;4973572;28;20290;-70
2023/12/22 09:40:31;;;;;;;1.33;1.13;;;;;;;4.06;86.64;98347.81;4965602;28;20570;-68
2023/12/22 09:43:02;;;;;;;5.80;1.85;;;;;;;4.00;86.58;98360.22;4966764;28;20191;-69
2023/12/22 09:45:33;;;;;;;1.45;1.23;;;;;;;3.99;86.02;98368.44;4977231;28;20211;-70
2023/12/22 09:48:03;;;;;;;5.72;1.48;;;;;;;4.07;86.61;98376.19;4969648;28;20196;-69
2023/12/22 09:50:33;;;;;;;20.25;1.55;;;;;;;4.14;84.95;98368.91;4958682;28;20279;-69
2023/12/22 09:53:04;;;;;;;1.20;0.98;;;;;;;4.03;85.22;98380.34;4973880;28;20231;-70
2023/12/22 09:55:35;;;;;;;2.75;1.02;;;;;;;4.06;86.00;98378.06;4964768;28;20244;-71
2023/12/22 09:58:07;;;;;;;3.15;0.85;;;;;;;4.17;85.63;98405.94;4968799;28;20693;-69
2023/12/22 10:00:38;;;;;;;1.85;1.52;;;;;;;4.24;84.90;98404.03;4975182;28;20631;-69
2023/12/22 10:03:08;;;;;;;2.90;1.30;;;;;;;4.26;84.65;98401.94;4967571;28;20191;-67
2023/12/22 10:05:37;;;;;;;4.50;1.02;;;;;;;4.44;85.32;98404.63;4975232;28;20222;-67
2023/12/22 10:08:07;;;;;;;6.28;1.73;;;;;;;4.47;84.09;98392.63;4970952;28;20276;-68
2023/12/22 10:10:36;;;;;;;6.65;1.70;;;;;;;4.44;83.05;98396.59;4976273;28;20194;-68
2023/12/22 10:13:09;;;;;;;6.55;1.42;;;;;;;4.52;83.42;98396.28;4966839;28;20686;-69
2023/12/22 10:15:41;;;;;;;3.50;0.80;;;;;;;4.51;82.92;98447.38;4963649;28;20716;-69
2023/12/22 10:18:11;;;;;;;4.07;1.10;;;;;;;4.42;83.48;98420.09;4969867;28;20203;-69
2023/12/22 10:20:40;;;;;;;1.35;1.20;;;;;;;4.55;83.29;98417.25;4966382;28;20676;-68
2023/12/22 10:23:09;;;;;;;2.47;1.48;;;;;;;4.54;82.13;98407.59;4972701;28;20195;-68
2023/12/22 10:25:40;;;;;;;1.55;1.30;;;;;;;4.60;81.00;98430.78;4976927;28;20246;-68
2023/12/22 10:28:13;;;;;;;5.53;1.70;;;;;;;4.59;81.72;98410.44;4965989;28;20278;-69
2023/12/22 10:30:42;;;;;;;3.83;1.08;;;;;;;4.66;80.31;98403.13;4972222;28;20204;-67
2023/12/22 10:33:12;;;;;;;10.82;2.45;;;;;;;4.73;80.82;98411.91;4966704;28;20278;-68
2023/12/22 10:35:43;;;;;;;1.70;0.80;;;;;;;4.64;79.10;98421.28;4969632;28;20219;-70
2023/12/22 10:38:12;;;;;;;1.25;0.80;;;;;;;4.64;78.94;98396.38;4962004;28;20208;-70
2023/12/22 10:40:41;;;;;;;6.97;2.42;;;;;;;4.72;78.53;98418.31;4969857;28;20196;-69
2023/12/22 10:43:12;;;;;;;3.72;1.45;;;;;;;4.68;78.05;98421.66;4966258;28;20191;-69
2023/12/22 10:45:43;;;;;;;3.63;1.48;;;;;;;4.78;78.46;98412.06;4972865;28;20285;-69
2023/12/22 10:48:12;;;;;;;1.52;0.88;;;;;;;4.87;78.78;98401.84;4973856;28;20203;-68
2023/12/22 10:50:42;;;;;;;3.45;1.60;;;;;;;4.87;77.96;98392.97;4970844;28;20202;-69
2023/12/22 10:53:12;;;;;;;5.57;1.35;;;;;;;4.67;78.84;98407.44;4970865;28;20195;-70
2023/12/22 10:55:50;;;;;;;5.95;1.15;;;;;;;4.65;79.21;98404.16;4965503;28;20241;-68
2023/12/22 10:58:22;;;;;;;3.90;1.60;;;;;;;4.71;80.27;98405.13;4971154;28;20238;-68
2023/12/22 11:00:52;;;;;;;1.38;0.82;;;;;;;4.71;79.85;98416.66;4969234;28;20196;-69
2023/12/22 11:03:27;;;;;;;4.93;1.65;;;;;;;4.78;78.89;98406.69;4963278;28;20196;-68
2023/12/22 11:05:58;;;;;;;5.30;1.35;;;;;;;4.81;78.82;98410.78;4973551;28;20269;-66
2023/12/22 11:08:29;;;;;;;3.22;0.90;;;;;;;4.85;78.35;98411.13;4966689;28;20179;-68
2023/12/22 11:11:02;;;;;;;2.65;1.15;;;;;;;4.78;78.19;98430.00;4977143;28;20206;-68
2023/12/22 11:13:33;;;;;;;2.05;1.17;;;;;;;4.76;77.60;98407.94;4971450;28;20569;-69
2023/12/22 11:16:06;;;;;;;4.82;0.70;;;;;;;4.72;78.06;98421.00;4965240;28;20254;-69
2023/12/22 11:18:36;;;;;;;0.90;0.73;;;;;;;4.69;77.31;98396.50;4970736;28;20262;-68
2023/12/22 11:21:08;;;;;;;1.65;0.80;;;;;;;4.82;77.15;98434.69;4964166;28;20669;-68
2023/12/22 11:23:39;;;;;;;7.68;2.72;;;;;;;4.85;75.92;98400.41;4973039;28;20219;-69
2023/12/22 11:26:12;;;;;;;9.32;3.40;;;;;;;4.79;75.77;98421.72;4966577;28;20779;-67
2023/12/22 11:28:44;;;;;;;4.63;1.02;;;;;;;4.78;75.55;98406.69;4968495;28;20192;-68
2023/12/22 11:31:13;;;;;;;0.90;0.60;;;;;;;4.89;75.82;98415.03;4962545;28;20187;-69
2023/12/22 11:33:47;;;;;;;2.22;1.08;;;;;;;4.88;74.08;98427.59;4972060;28;20202;-68
2023/12/22 11:36:35;;;;;;;3.17;1.83;;;;;;;4.88;73.66;98410.69;4974792;28;20231;-69
2023/12/22 11:39:04;;;;;;;6.50;0.93;;;;;;;4.96;74.10;98413.06;4961999;28;20294;-69
2023/12/22 11:41:36;;;;;;;1.00;0.60;;;;;;;4.97;72.94;98409.34;4959133;28;20203;-69
2023/12/22 11:44:07;;;;;;;0.90;0.70;;;;;;;4.97;73.11;98415.53;4972573;28;20195;-67
2023/12/22 11:46:36;;;;;;;2.00;1.10;;;;;;;4.97;72.87;98422.75;4973133;28;20635;-70
2023/12/22 11:49:06;;;;;;;5.63;1.20;;;;;;;5.00;72.42;98406.19;4972992;28;20188;-69
2023/12/22 11:51:36;;;;;;;4.05;1.85;;;;;;;4.90;72.87;98404.06;4964870;28;20191;-69